createdAt,value
2018-07-02T00:00:29.694Z,24.10
2018-07-02T00:01:03.340Z,24.30
2018-07-02T00:01:36.967Z,24.10
2018-07-02T00:02:11.488Z,24.00
2018-07-02T00:02:45.164Z,24.40
2018-07-02T00:03:18.836Z,24.60
2018-07-02T00:03:53.146Z,24.60
2018-07-02T00:04:26.968Z,24.30
2018-07-02T00:05:00.644Z,24.00
2018-07-02T00:05:46.022Z,23.90
2018-07-02T00:06:40.782Z,24.40
2018-07-02T00:07:18.502Z,25.10
2018-07-02T00:07:52.863Z,24.50
2018-07-02T00:08:26.494Z,24.10
2018-07-02T00:09:33.427Z,24.60
2018-07-02T00:10:09.077Z,24.10
2018-07-02T00:10:43.744Z,23.90
2018-07-02T00:11:17.396Z,24.10
2018-07-02T00:11:51.238Z,24.60
2018-07-02T00:12:26.066Z,24.60
2018-07-02T00:12:59.648Z,24.80
2018-07-02T00:13:33.236Z,24.50
2018-07-02T00:14:07.338Z,24.50
2018-07-02T00:14:40.982Z,24.40
2018-07-02T00:15:14.644Z,24.50
2018-07-02T00:15:48.238Z,24.80
2018-07-02T00:16:21.877Z,24.70
2018-07-02T00:16:56.497Z,24.90
2018-07-02T00:17:30.148Z,25.10
2018-07-02T00:18:03.777Z,25.00
2018-07-02T00:18:37.407Z,24.80
2018-07-02T00:19:11.112Z,24.60
2018-07-02T00:19:44.689Z,24.70
2018-07-02T00:20:18.295Z,24.50
2018-07-02T00:21:25.253Z,24.80
2018-07-02T00:21:58.915Z,24.50
2018-07-02T00:22:32.522Z,24.50
2018-07-02T00:23:07.203Z,24.60
2018-07-02T00:23:42.458Z,24.30
2018-07-02T00:24:16.059Z,24.40
2018-07-02T00:24:49.824Z,24.40
2018-07-02T00:25:23.483Z,24.30
2018-07-02T00:25:57.020Z,24.30
2018-07-02T00:26:30.688Z,24.40
2018-07-02T00:27:05.164Z,24.40
2018-07-02T00:27:39.752Z,24.30
2018-07-02T00:28:48.079Z,24.60
2018-07-02T00:29:21.716Z,24.30
2018-07-02T00:29:56.104Z,24.60
2018-07-02T00:30:29.716Z,25.00
2018-07-02T00:31:03.978Z,24.60
2018-07-02T00:31:40.487Z,24.50
2018-07-02T00:32:14.155Z,25.20
2018-07-02T00:32:47.701Z,24.80
2018-07-02T00:33:21.275Z,25.10
2018-07-02T00:33:54.802Z,24.90
2018-07-02T00:34:29.023Z,25.50
2018-07-02T00:35:02.628Z,24.90
2018-07-02T00:35:36.264Z,25.10
2018-07-02T00:36:09.942Z,25.40
2018-07-02T00:36:43.491Z,25.50
2018-07-02T00:37:17.106Z,25.20
2018-07-02T00:37:50.667Z,25.40
2018-07-02T00:38:24.218Z,24.90
2018-07-02T00:38:58.313Z,25.00
2018-07-02T00:39:31.883Z,25.20
2018-07-02T00:40:05.614Z,25.10
2018-07-02T00:40:39.250Z,25.10
2018-07-02T00:41:12.853Z,25.40
2018-07-02T00:41:46.496Z,25.80
2018-07-02T00:42:20.150Z,26.00
2018-07-02T00:42:53.772Z,25.80
2018-07-02T00:43:27.383Z,25.40
2018-07-02T00:44:01.469Z,25.00
2018-07-02T00:44:35.085Z,24.80
2018-07-02T00:45:08.693Z,24.90
2018-07-02T00:45:43.836Z,24.80
2018-07-02T00:46:18.376Z,25.00
2018-07-02T00:46:52.027Z,25.10
2018-07-02T00:47:25.679Z,25.10
2018-07-02T00:48:00.136Z,25.50
2018-07-02T00:48:33.686Z,24.80
2018-07-02T00:49:07.644Z,24.90
2018-07-02T00:49:41.314Z,24.90
2018-07-02T00:50:14.908Z,25.30
2018-07-02T00:50:48.526Z,25.60
2018-07-02T00:51:22.174Z,25.60
2018-07-02T00:51:56.136Z,25.90
2018-07-02T00:52:30.200Z,26.00
2018-07-02T00:53:03.795Z,26.00
2018-07-02T00:53:38.544Z,25.40
2018-07-02T00:54:12.269Z,25.30
2018-07-02T00:54:45.918Z,25.80
2018-07-02T00:55:19.568Z,25.10
2018-07-02T00:55:53.919Z,25.40
2018-07-02T00:56:27.574Z,26.10
2018-07-02T00:57:34.394Z,26.10
2018-07-02T00:58:08.036Z,26.00
2018-07-02T00:58:41.621Z,25.40
2018-07-02T00:59:15.203Z,25.10
2018-07-02T00:59:48.856Z,25.00
2018-07-02T01:00:22.744Z,25.10
2018-07-02T01:00:56.339Z,25.40
2018-07-02T01:01:30.156Z,25.90
2018-07-02T01:02:03.792Z,25.70
2018-07-02T01:02:37.359Z,25.50
2018-07-02T01:03:10.997Z,25.50
2018-07-02T01:03:44.594Z,25.10
2018-07-02T01:04:18.790Z,25.50
2018-07-02T01:04:52.445Z,25.50
2018-07-02T01:05:26.111Z,25.20
2018-07-02T01:05:59.781Z,25.40
2018-07-02T01:06:33.408Z,25.30
2018-07-02T01:07:08.368Z,25.20
2018-07-02T01:07:43.188Z,25.40
2018-07-02T01:08:16.776Z,25.30
2018-07-02T01:08:50.330Z,25.40
2018-07-02T01:09:24.016Z,25.30
2018-07-02T01:09:57.563Z,25.40
2018-07-02T01:10:31.122Z,25.40
2018-07-02T01:11:05.085Z,25.60
2018-07-02T01:11:39.420Z,26.00
2018-07-02T01:12:14.066Z,25.80
2018-07-02T01:12:49.282Z,25.60
2018-07-02T01:13:23.302Z,25.50
2018-07-02T01:13:57.607Z,25.40
2018-07-02T01:14:31.740Z,25.40
2018-07-02T01:15:06.470Z,25.40
2018-07-02T01:15:42.876Z,26.00
2018-07-02T01:16:16.465Z,25.60
2018-07-02T01:16:51.080Z,25.50
2018-07-02T01:17:24.709Z,25.70
2018-07-02T01:17:58.335Z,26.50
2018-07-02T01:18:31.892Z,26.50
2018-07-02T01:19:05.511Z,26.40
2018-07-02T01:19:39.124Z,26.20
2018-07-02T01:20:12.756Z,26.10
2018-07-02T01:20:46.352Z,25.70
2018-07-02T01:21:20.626Z,25.60
2018-07-02T01:21:54.252Z,25.50
2018-07-02T01:22:27.836Z,26.10
2018-07-02T01:23:01.391Z,25.50
2018-07-02T01:23:34.995Z,25.50
2018-07-02T01:24:08.620Z,25.60
2018-07-02T01:24:42.227Z,25.50
2018-07-02T01:25:15.849Z,25.80
2018-07-02T01:25:49.438Z,26.30
2018-07-02T01:26:22.987Z,26.70
2018-07-02T01:27:34.223Z,26.50
2018-07-02T01:28:41.118Z,26.00
2018-07-02T01:29:14.722Z,25.70
2018-07-02T01:29:52.974Z,25.70
2018-07-02T01:30:26.724Z,25.90
2018-07-02T01:31:00.398Z,26.30
2018-07-02T01:31:34.030Z,26.70
2018-07-02T01:32:07.655Z,26.80
2018-07-02T01:33:14.596Z,26.30
2018-07-02T01:33:49.550Z,25.80
2018-07-02T01:34:23.767Z,25.60
2018-07-02T01:34:57.361Z,25.80
2018-07-02T01:35:31.481Z,25.90
2018-07-02T01:36:05.204Z,26.00
2018-07-02T01:36:38.867Z,26.00
2018-07-02T01:37:12.499Z,26.00
2018-07-02T01:37:46.151Z,26.00
2018-07-02T01:38:20.232Z,26.00
2018-07-02T01:38:55.384Z,25.90
2018-07-02T01:39:29.348Z,25.50
2018-07-02T01:40:03.411Z,25.60
2018-07-02T01:40:37.056Z,26.00
2018-07-02T01:41:11.783Z,26.10
2018-07-02T01:41:45.356Z,26.20
2018-07-02T01:42:19.017Z,26.90
2018-07-02T01:42:52.955Z,26.00
2018-07-02T01:43:29.549Z,26.10
2018-07-02T01:44:03.838Z,26.50
2018-07-02T01:44:39.404Z,26.60
2018-07-02T01:45:12.995Z,26.40
2018-07-02T01:45:47.146Z,26.40
2018-07-02T01:46:21.952Z,26.40
2018-07-02T01:46:55.539Z,26.60
2018-07-02T01:47:29.235Z,26.20
2018-07-02T01:48:02.855Z,26.20
2018-07-02T01:49:09.713Z,27.40
2018-07-02T01:49:43.345Z,27.00
2018-07-02T01:50:16.953Z,27.20
2018-07-02T01:50:50.574Z,26.80
2018-07-02T01:51:24.150Z,26.50
2018-07-02T01:51:57.759Z,26.50
2018-07-02T01:52:31.323Z,26.90
2018-07-02T01:53:04.907Z,27.20
2018-07-02T01:53:38.468Z,27.10
2018-07-02T01:54:12.999Z,26.90
2018-07-02T01:54:46.578Z,26.60
2018-07-02T01:55:20.786Z,26.50
2018-07-02T01:55:54.532Z,26.70
2018-07-02T01:56:28.187Z,27.00
2018-07-02T01:57:01.784Z,27.20
2018-07-02T01:57:36.028Z,27.10
2018-07-02T01:58:09.565Z,26.70
2018-07-02T01:58:43.674Z,26.60
2018-07-02T01:59:17.259Z,26.40
2018-07-02T01:59:50.867Z,26.50
2018-07-02T02:00:24.521Z,26.50
2018-07-02T02:00:58.088Z,26.40
2018-07-02T02:01:32.467Z,26.80
2018-07-02T02:02:06.182Z,26.20
2018-07-02T02:02:39.854Z,26.60
2018-07-02T02:03:13.615Z,26.50
2018-07-02T02:03:47.157Z,26.50
2018-07-02T02:04:21.925Z,26.90
2018-07-02T02:04:55.681Z,26.60
2018-07-02T02:05:29.479Z,27.00
2018-07-02T02:06:03.148Z,26.70
2018-07-02T02:06:37.876Z,26.60
2018-07-02T02:07:12.178Z,26.60
2018-07-02T02:07:46.763Z,26.60
2018-07-02T02:08:20.884Z,26.80
2018-07-02T02:08:54.935Z,27.00
2018-07-02T02:09:28.582Z,27.10
2018-07-02T02:10:02.240Z,27.30
2018-07-02T02:10:35.873Z,27.10
2018-07-02T02:11:09.433Z,27.30
2018-07-02T02:11:43.617Z,26.60
2018-07-02T02:12:17.801Z,26.50
2018-07-02T02:12:52.090Z,26.30
2018-07-02T02:13:25.655Z,26.30
2018-07-02T02:13:59.345Z,26.10
2018-07-02T02:14:32.989Z,26.10
2018-07-02T02:15:07.768Z,26.30
2018-07-02T02:15:41.360Z,26.10
2018-07-02T02:16:14.986Z,26.30
2018-07-02T02:16:48.596Z,26.50
2018-07-02T02:17:22.219Z,26.40
2018-07-02T02:18:29.767Z,26.70
2018-07-02T02:19:04.046Z,26.60
2018-07-02T02:19:37.629Z,27.10
2018-07-02T02:20:11.253Z,27.40
2018-07-02T02:20:44.973Z,27.50
2018-07-02T02:21:18.904Z,27.60
2018-07-02T02:21:53.540Z,27.60
2018-07-02T02:22:27.195Z,27.30
2018-07-02T02:23:00.756Z,26.90
2018-07-02T02:24:07.702Z,26.90
2018-07-02T02:24:41.283Z,26.60
2018-07-02T02:25:14.834Z,26.20
2018-07-02T02:25:49.097Z,26.80
2018-07-02T02:26:22.718Z,27.00
2018-07-02T02:26:56.910Z,27.30
2018-07-02T02:27:30.580Z,27.90
2018-07-02T02:28:04.527Z,27.90
2018-07-02T02:28:38.101Z,27.30
2018-07-02T02:29:12.260Z,27.00
2018-07-02T02:29:46.217Z,26.90
2018-07-02T02:30:20.595Z,26.80
2018-07-02T02:30:54.216Z,27.50
2018-07-02T02:31:27.846Z,27.90
2018-07-02T02:32:02.152Z,27.80
2018-07-02T02:32:36.257Z,27.80
2018-07-02T02:33:09.880Z,27.90
2018-07-02T02:33:43.468Z,28.20
2018-07-02T02:34:17.068Z,27.70
2018-07-02T02:34:50.688Z,27.20
2018-07-02T02:35:24.297Z,27.30
2018-07-02T02:35:57.871Z,27.90
2018-07-02T02:36:31.460Z,28.20
2018-07-02T02:37:05.230Z,28.00
2018-07-02T02:37:38.800Z,27.70
2018-07-02T02:38:12.398Z,27.40
2018-07-02T02:38:46.008Z,27.20
2018-07-02T02:39:19.713Z,26.90
2018-07-02T02:39:53.374Z,26.80
2018-07-02T02:40:27.711Z,27.50
2018-07-02T02:41:01.901Z,26.90
2018-07-02T02:41:35.583Z,27.40
2018-07-02T02:42:09.198Z,27.70
2018-07-02T02:42:43.411Z,27.90
2018-07-02T02:43:17.040Z,27.90
2018-07-02T02:43:51.032Z,27.50
2018-07-02T02:44:24.632Z,27.20
2018-07-02T02:44:58.292Z,27.00
2018-07-02T02:45:31.938Z,27.00
2018-07-02T02:46:06.239Z,27.50
2018-07-02T02:47:15.972Z,28.30
2018-07-02T02:47:49.527Z,27.60
2018-07-02T02:48:24.189Z,27.40
2018-07-02T02:48:57.769Z,27.70
2018-07-02T02:49:31.360Z,27.50
2018-07-02T02:50:04.967Z,27.10
2018-07-02T02:50:38.506Z,27.00
2018-07-02T02:51:12.126Z,26.80
2018-07-02T02:51:46.399Z,26.70
2018-07-02T02:52:19.991Z,26.80
2018-07-02T02:52:54.272Z,27.00
2018-07-02T02:53:27.915Z,27.20
2018-07-02T02:54:02.302Z,27.50
2018-07-02T02:54:36.013Z,28.00
2018-07-02T02:55:09.620Z,28.30
2018-07-02T02:55:43.802Z,28.30
2018-07-02T02:56:17.385Z,29.00
2018-07-02T02:56:51.018Z,28.10
2018-07-02T02:57:24.607Z,27.90
2018-07-02T02:57:58.275Z,27.60
2018-07-02T02:58:31.973Z,27.40
2018-07-02T02:59:05.736Z,27.40
2018-07-02T02:59:39.366Z,27.40
2018-07-02T03:00:12.983Z,27.60
2018-07-02T03:00:46.665Z,28.20
2018-07-02T03:01:20.803Z,28.10
2018-07-02T03:01:54.433Z,28.50
2018-07-02T03:02:28.061Z,28.10
2018-07-02T03:03:34.918Z,27.80
2018-07-02T03:04:08.554Z,27.40
2018-07-02T03:04:42.215Z,27.30
2018-07-02T03:05:16.398Z,27.50
2018-07-02T03:05:49.995Z,27.20
2018-07-02T03:06:23.619Z,27.20
2018-07-02T03:06:57.267Z,27.40
2018-07-02T03:07:30.908Z,27.30
2018-07-02T03:08:04.549Z,27.40
2018-07-02T03:08:38.193Z,27.90
2018-07-02T03:09:12.365Z,28.50
2018-07-02T03:09:47.589Z,28.40
2018-07-02T03:10:21.091Z,27.90
2018-07-02T03:10:54.675Z,27.90
2018-07-02T03:11:28.300Z,27.80
2018-07-02T03:12:02.059Z,28.00
2018-07-02T03:12:36.469Z,28.00
2018-07-02T03:13:10.106Z,27.90
2018-07-02T03:13:44.501Z,28.00
2018-07-02T03:14:18.676Z,28.00
2018-07-02T03:14:52.289Z,28.30
2018-07-02T03:15:26.674Z,28.80
2018-07-02T03:16:01.807Z,29.10
2018-07-02T03:16:35.665Z,29.40
2018-07-02T03:17:10.183Z,29.20
2018-07-02T03:17:43.806Z,28.90
2018-07-02T03:18:17.495Z,28.80
2018-07-02T03:18:51.052Z,29.20
2018-07-02T03:19:24.801Z,29.40
2018-07-02T03:19:58.420Z,29.30
2018-07-02T03:20:32.045Z,29.50
2018-07-02T03:21:05.641Z,29.80
2018-07-02T03:21:39.278Z,29.70
2018-07-02T03:22:12.880Z,29.50
2018-07-02T03:22:46.795Z,29.30
2018-07-02T03:23:20.425Z,29.40
2018-07-02T03:23:54.481Z,29.60
2018-07-02T03:24:29.651Z,29.60
2018-07-02T03:25:03.352Z,29.90
2018-07-02T03:25:36.973Z,30.00
2018-07-02T03:26:11.494Z,30.30
2018-07-02T03:26:45.611Z,30.50
2018-07-02T03:27:19.260Z,30.70
2018-07-02T03:27:52.886Z,30.90
2018-07-02T03:28:26.476Z,31.20
2018-07-02T03:29:00.106Z,31.00
2018-07-02T03:29:33.700Z,31.10
2018-07-02T03:30:07.450Z,31.20
2018-07-02T03:30:41.119Z,31.40
2018-07-02T03:31:15.385Z,31.60
2018-07-02T03:31:50.981Z,31.70
2018-07-02T03:32:24.751Z,31.60
2018-07-02T03:32:59.156Z,31.70
2018-07-02T03:33:34.296Z,31.80
2018-07-02T03:34:08.788Z,32.00
2018-07-02T03:34:42.563Z,31.70
2018-07-02T03:35:17.571Z,31.80
2018-07-02T03:35:51.200Z,31.80
2018-07-02T03:36:24.950Z,31.90
2018-07-02T03:36:58.584Z,32.90
2018-07-02T03:37:32.775Z,31.90
2018-07-02T03:38:06.574Z,32.00
2018-07-02T03:38:40.186Z,31.90
2018-07-02T03:39:28.200Z,31.70
2018-07-02T03:40:02.680Z,31.70
2018-07-02T03:40:36.863Z,31.70
2018-07-02T03:41:11.206Z,31.80
2018-07-02T03:41:45.514Z,31.90
2018-07-02T03:42:19.128Z,31.90
2018-07-02T03:42:52.740Z,31.90
2018-07-02T03:43:59.592Z,32.70
2018-07-02T03:44:33.716Z,32.50
2018-07-02T03:45:07.350Z,32.70
2018-07-02T03:45:41.008Z,32.70
2018-07-02T03:46:15.306Z,33.60
2018-07-02T03:46:48.900Z,33.00
2018-07-02T03:47:22.555Z,33.00
2018-07-02T03:47:56.884Z,33.00
2018-07-02T03:48:31.969Z,32.90
2018-07-02T03:49:05.981Z,33.10
2018-07-02T03:50:12.875Z,33.30
2018-07-02T03:50:46.504Z,33.00
2018-07-02T03:51:21.026Z,33.10
2018-07-02T03:51:54.641Z,33.20
2018-07-02T03:52:28.237Z,33.40
2018-07-02T03:53:01.840Z,33.50
2018-07-02T03:53:35.510Z,33.50
2018-07-02T03:54:09.098Z,33.50
2018-07-02T03:54:42.704Z,33.20
2018-07-02T03:55:16.374Z,33.20
2018-07-02T03:55:49.978Z,33.30
2018-07-02T03:56:23.582Z,33.20
2018-07-02T03:56:58.128Z,32.90
2018-07-02T03:57:31.750Z,33.20
2018-07-02T03:58:05.467Z,33.30
2018-07-02T03:58:39.333Z,32.90
2018-07-02T03:59:12.968Z,33.10
2018-07-02T03:59:46.548Z,33.00
2018-07-02T04:00:20.099Z,33.70
2018-07-02T04:00:53.769Z,33.80
2018-07-02T04:02:00.728Z,33.80
2018-07-02T04:03:07.954Z,33.90
2018-07-02T04:03:42.835Z,34.10
2018-07-02T04:04:16.817Z,34.20
2018-07-02T04:04:50.429Z,34.00
2018-07-02T04:05:24.730Z,34.00
2018-07-02T04:06:32.173Z,34.30
2018-07-02T04:07:09.005Z,34.20
2018-07-02T04:07:43.891Z,34.30
2018-07-02T04:08:17.511Z,34.20
2018-07-02T04:08:51.820Z,34.10
2018-07-02T04:09:25.377Z,34.30
2018-07-02T04:09:59.017Z,34.10
2018-07-02T04:10:32.651Z,33.90
2018-07-02T04:11:06.286Z,33.90
2018-07-02T04:11:39.910Z,33.60
2018-07-02T04:12:13.605Z,33.40
2018-07-02T04:12:47.164Z,33.60
2018-07-02T04:13:20.761Z,33.40
2018-07-02T04:13:55.070Z,34.20
2018-07-02T04:14:28.718Z,33.50
2018-07-02T04:15:02.347Z,33.40
2018-07-02T04:15:36.000Z,33.70
2018-07-02T04:16:09.570Z,33.80
2018-07-02T04:16:43.130Z,33.60
2018-07-02T04:17:16.780Z,33.60
2018-07-02T04:17:51.389Z,33.70
2018-07-02T04:18:25.891Z,33.70
2018-07-02T04:19:06.139Z,33.80
2018-07-02T04:19:40.736Z,33.70
2018-07-02T04:20:14.550Z,33.80
2018-07-02T04:20:48.190Z,34.00
2018-07-02T04:21:22.634Z,34.10
2018-07-02T04:21:57.401Z,34.00
2018-07-02T04:23:05.424Z,34.00
2018-07-02T04:23:39.040Z,34.00
2018-07-02T04:24:14.047Z,34.00
2018-07-02T04:24:47.633Z,33.70
2018-07-02T04:25:21.208Z,33.50
2018-07-02T04:25:55.696Z,33.50
2018-07-02T04:26:29.309Z,33.30
2018-07-02T04:27:04.272Z,33.20
2018-07-02T04:27:37.838Z,33.20
2018-07-02T04:28:11.695Z,33.10
2018-07-02T04:28:45.271Z,33.10
2018-07-02T04:29:18.884Z,33.30
2018-07-02T04:29:52.519Z,33.20
2018-07-02T04:30:26.154Z,33.20
2018-07-02T04:30:59.776Z,33.40
2018-07-02T04:31:33.424Z,33.30
2018-07-02T04:32:06.994Z,33.20
2018-07-02T04:33:13.822Z,33.80
2018-07-02T04:33:47.410Z,33.40
2018-07-02T04:34:21.008Z,33.20
2018-07-02T04:34:54.625Z,33.20
2018-07-02T04:35:28.321Z,33.10
2018-07-02T04:36:01.938Z,33.10
2018-07-02T04:36:36.248Z,33.00
2018-07-02T04:37:10.421Z,33.10
2018-07-02T04:37:43.995Z,33.00
2018-07-02T04:38:51.763Z,33.10
2018-07-02T04:39:26.524Z,32.90
2018-07-02T04:40:00.787Z,33.00
2018-07-02T04:40:35.152Z,33.30
2018-07-02T04:41:08.753Z,33.20
2018-07-02T04:41:42.497Z,33.00
2018-07-02T04:42:50.284Z,33.30
2018-07-02T04:43:24.544Z,33.10
2018-07-02T04:43:58.157Z,33.10
2018-07-02T04:44:31.779Z,33.20
2018-07-02T04:45:05.622Z,32.60
2018-07-02T04:45:39.974Z,32.90
2018-07-02T04:46:14.133Z,32.70
2018-07-02T04:46:47.736Z,32.90
2018-07-02T04:47:21.954Z,33.10
2018-07-02T04:47:56.285Z,32.80
2018-07-02T04:48:30.429Z,32.90
2018-07-02T04:49:04.120Z,33.00
2018-07-02T04:49:38.425Z,33.60
2018-07-02T04:50:12.039Z,33.10
2018-07-02T04:50:45.600Z,33.20
2018-07-02T04:51:19.641Z,33.40
2018-07-02T04:51:54.153Z,33.10
2018-07-02T04:52:27.752Z,32.80
2018-07-02T04:53:02.080Z,32.70
2018-07-02T04:53:35.691Z,32.60
2018-07-02T04:54:09.890Z,32.80
2018-07-02T04:54:43.509Z,33.00
2018-07-02T04:55:17.168Z,32.90
2018-07-02T04:55:50.752Z,32.80
2018-07-02T04:56:24.364Z,32.90
2018-07-02T04:56:57.979Z,33.10
2018-07-02T04:57:31.656Z,33.10
2018-07-02T04:58:06.375Z,33.20
2018-07-02T04:58:40.944Z,33.30
2018-07-02T04:59:15.947Z,33.40
2018-07-02T04:59:50.459Z,33.10
2018-07-02T05:00:24.126Z,33.20
2018-07-02T05:00:57.683Z,33.00
2018-07-02T05:01:31.232Z,32.80
2018-07-02T05:02:05.651Z,32.90
2018-07-02T05:02:39.864Z,32.80
2018-07-02T05:03:13.408Z,32.80
2018-07-02T05:03:48.138Z,32.90
2018-07-02T05:04:22.486Z,32.90
2018-07-02T05:04:56.195Z,33.00
2018-07-02T05:05:29.743Z,33.20
2018-07-02T05:06:04.870Z,33.20
2018-07-02T05:06:39.150Z,33.20
2018-07-02T05:07:13.207Z,33.00
2018-07-02T05:07:46.765Z,32.90
2018-07-02T05:08:21.334Z,32.70
2018-07-02T05:08:54.955Z,32.60
2018-07-02T05:09:29.503Z,32.60
2018-07-02T05:10:03.200Z,32.70
2018-07-02T05:10:36.772Z,32.70
2018-07-02T05:11:10.314Z,32.90
2018-07-02T05:11:44.035Z,33.10
2018-07-02T05:12:17.591Z,33.10
2018-07-02T05:12:52.064Z,33.20
2018-07-02T05:13:26.085Z,32.80
2018-07-02T05:13:59.714Z,32.90
2018-07-02T05:14:33.608Z,33.20
2018-07-02T05:15:07.183Z,33.30
2018-07-02T05:15:40.756Z,33.30
2018-07-02T05:16:14.391Z,33.30
2018-07-02T05:16:48.725Z,33.40
2018-07-02T05:17:23.165Z,33.40
2018-07-02T05:17:57.489Z,33.50
2018-07-02T05:18:31.146Z,33.20
2018-07-02T05:19:04.863Z,32.90
2018-07-02T05:19:38.448Z,33.00
2018-07-02T05:20:12.125Z,33.10
2018-07-02T05:20:45.722Z,32.80
2018-07-02T05:21:19.281Z,32.70
2018-07-02T05:21:52.953Z,33.00
2018-07-02T05:22:26.654Z,33.20
2018-07-02T05:23:00.236Z,33.20
2018-07-02T05:23:34.602Z,32.80
2018-07-02T05:24:08.287Z,33.20
2018-07-02T05:24:42.907Z,33.20
2018-07-02T05:25:16.846Z,33.30
2018-07-02T05:25:50.976Z,33.20
2018-07-02T05:26:24.628Z,33.10
2018-07-02T05:26:58.860Z,33.00
2018-07-02T05:27:32.408Z,32.70
2018-07-02T05:28:06.751Z,32.50
2018-07-02T05:28:40.445Z,32.50
2018-07-02T05:29:14.096Z,32.90
2018-07-02T05:29:47.566Z,32.90
2018-07-02T05:30:21.842Z,32.40
2018-07-02T05:30:56.124Z,32.50
2018-07-02T05:31:29.788Z,32.70
2018-07-02T05:32:04.342Z,32.60
2018-07-02T05:32:37.950Z,32.60
2018-07-02T05:33:11.526Z,32.50
2018-07-02T05:33:45.112Z,32.40
2018-07-02T05:34:19.164Z,32.30
2018-07-02T05:34:53.243Z,32.60
2018-07-02T05:35:26.858Z,32.70
2018-07-02T05:36:01.121Z,32.90
2018-07-02T05:36:34.827Z,32.80
2018-07-02T05:37:08.618Z,32.70
2018-07-02T05:37:42.246Z,32.70
2018-07-02T05:38:16.003Z,32.60
2018-07-02T05:38:49.660Z,32.50
2018-07-02T05:39:23.280Z,32.70
2018-07-02T05:39:57.444Z,32.70
2018-07-02T05:40:32.491Z,32.60
2018-07-02T05:41:40.804Z,33.10
2018-07-02T05:42:15.056Z,32.50
2018-07-02T05:42:48.649Z,32.10
2018-07-02T05:43:23.886Z,32.10
2018-07-02T05:43:57.547Z,31.80
2018-07-02T05:44:31.835Z,32.20
2018-07-02T05:45:05.603Z,32.50
2018-07-02T05:46:12.425Z,32.80
2018-07-02T05:46:46.006Z,32.90
2018-07-02T05:47:19.657Z,32.90
2018-07-02T05:47:53.636Z,33.00
2018-07-02T05:48:27.293Z,32.80
2018-07-02T05:49:01.339Z,32.70
2018-07-02T05:49:34.920Z,32.70
2018-07-02T05:50:08.504Z,32.70
2018-07-02T05:50:42.668Z,32.60
2018-07-02T05:51:16.251Z,32.30
2018-07-02T05:51:49.892Z,32.30
2018-07-02T05:52:24.257Z,32.50
2018-07-02T05:52:58.544Z,32.50
2018-07-02T05:53:32.647Z,32.30
2018-07-02T05:54:06.388Z,32.30
2018-07-02T05:54:39.949Z,32.10
2018-07-02T05:55:13.462Z,32.50
2018-07-02T05:55:47.023Z,32.40
2018-07-02T05:56:20.899Z,32.40
2018-07-02T05:56:55.185Z,33.10
2018-07-02T05:57:28.703Z,32.50
2018-07-02T05:58:05.833Z,32.40
2018-07-02T05:58:40.716Z,32.50
2018-07-02T05:59:15.880Z,32.50
2018-07-02T05:59:49.452Z,32.60
2018-07-02T06:00:23.010Z,32.50
2018-07-02T06:00:56.656Z,32.20
2018-07-02T06:01:31.042Z,32.30
2018-07-02T06:02:04.666Z,32.30
2018-07-02T06:02:38.750Z,32.50
2018-07-02T06:03:12.855Z,32.40
2018-07-02T06:03:47.380Z,32.20
2018-07-02T06:04:21.600Z,32.20
2018-07-02T06:04:55.791Z,32.40
2018-07-02T06:05:29.577Z,32.60
2018-07-02T06:06:03.680Z,33.00
2018-07-02T06:06:37.283Z,32.90
2018-07-02T06:07:10.997Z,33.00
2018-07-02T06:07:44.631Z,33.30
2018-07-02T06:08:18.911Z,33.10
2018-07-02T06:08:52.749Z,33.10
2018-07-02T06:09:26.396Z,33.10
2018-07-02T06:10:00.585Z,33.20
2018-07-02T06:10:34.695Z,33.30
2018-07-02T06:11:08.724Z,33.20
2018-07-02T06:11:42.314Z,33.10
2018-07-02T06:12:16.636Z,33.00
2018-07-02T06:13:24.009Z,33.30
2018-07-02T06:13:58.208Z,33.10
2018-07-02T06:14:31.867Z,32.80
2018-07-02T06:15:06.775Z,32.80
2018-07-02T06:15:40.312Z,33.60
2018-07-02T06:16:14.638Z,32.70
2018-07-02T06:16:48.242Z,32.50
2018-07-02T06:17:22.957Z,32.80
2018-07-02T06:17:56.668Z,33.10
2018-07-02T06:18:30.307Z,33.10
2018-07-02T06:19:04.121Z,33.10
2018-07-02T06:19:37.920Z,33.30
2018-07-02T06:20:11.528Z,33.40
2018-07-02T06:20:45.461Z,33.10
2018-07-02T06:21:19.015Z,33.10
2018-07-02T06:21:52.596Z,33.30
2018-07-02T06:22:26.160Z,33.30
2018-07-02T06:22:59.716Z,33.30
2018-07-02T06:23:33.288Z,33.40
2018-07-02T06:24:06.901Z,33.50
2018-07-02T06:24:40.833Z,33.40
2018-07-02T06:25:14.403Z,33.00
2018-07-02T06:25:48.254Z,32.30
2018-07-02T06:26:22.685Z,31.80
2018-07-02T06:26:56.241Z,31.50
2018-07-02T06:27:29.821Z,31.40
2018-07-02T06:28:03.427Z,31.40
2018-07-02T06:28:37.039Z,31.50
2018-07-02T06:29:11.543Z,31.50
2018-07-02T06:29:45.116Z,32.40
2018-07-02T06:30:18.736Z,32.90
2018-07-02T06:30:52.388Z,32.60
2018-07-02T06:31:25.973Z,32.10
2018-07-02T06:32:00.283Z,31.80
2018-07-02T06:32:33.864Z,33.20
2018-07-02T06:33:07.459Z,32.30
2018-07-02T06:33:41.029Z,32.00
2018-07-02T06:34:14.646Z,32.20
2018-07-02T06:34:48.911Z,32.30
2018-07-02T06:35:22.512Z,32.20
2018-07-02T06:35:56.081Z,32.10
2018-07-02T06:36:29.689Z,32.10
2018-07-02T06:37:03.313Z,32.30
2018-07-02T06:37:36.886Z,32.60
2018-07-02T06:38:10.448Z,32.90
2018-07-02T06:39:17.283Z,33.60
2018-07-02T06:39:51.518Z,33.30
2018-07-02T06:40:26.082Z,33.10
2018-07-02T06:40:59.664Z,33.10
2018-07-02T06:41:33.190Z,32.80
2018-07-02T06:42:08.093Z,32.50
2018-07-02T06:42:42.446Z,32.50
2018-07-02T06:43:16.008Z,32.40
2018-07-02T06:43:49.600Z,32.70
2018-07-02T06:44:23.684Z,32.90
2018-07-02T06:44:57.304Z,33.00
2018-07-02T06:45:30.886Z,32.90
2018-07-02T06:46:05.268Z,33.10
2018-07-02T06:46:38.864Z,33.10
2018-07-02T06:47:12.539Z,32.70
2018-07-02T06:47:46.908Z,31.80
2018-07-02T06:48:20.516Z,31.30
2018-07-02T06:48:55.063Z,31.10
2018-07-02T06:49:28.603Z,30.90
2018-07-02T06:50:02.919Z,30.90
2018-07-02T06:50:36.510Z,31.20
2018-07-02T06:51:10.436Z,31.00
2018-07-02T06:51:44.626Z,30.60
2018-07-02T06:52:18.874Z,30.70
2018-07-02T06:52:52.646Z,30.70
2018-07-02T06:53:26.214Z,30.70
2018-07-02T06:54:01.214Z,30.80
2018-07-02T06:54:35.851Z,30.70
2018-07-02T06:55:10.614Z,30.60
2018-07-02T06:55:44.168Z,31.30
2018-07-02T06:56:17.739Z,30.60
2018-07-02T06:56:52.330Z,30.60
2018-07-02T06:57:27.063Z,30.90
2018-07-02T06:58:00.665Z,31.40
2018-07-02T06:58:34.269Z,31.40
2018-07-02T06:59:07.859Z,31.00
2018-07-02T06:59:41.453Z,30.70
2018-07-02T07:00:15.025Z,30.80
2018-07-02T07:00:48.612Z,31.20
2018-07-02T07:01:22.169Z,31.80
2018-07-02T07:01:55.767Z,31.00
2018-07-02T07:02:29.386Z,30.90
2018-07-02T07:03:03.026Z,30.90
2018-07-02T07:03:37.912Z,30.70
2018-07-02T07:04:11.948Z,30.40
2018-07-02T07:04:45.567Z,30.20
2018-07-02T07:05:19.159Z,30.20
2018-07-02T07:05:53.013Z,30.50
2018-07-02T07:06:27.266Z,31.30
2018-07-02T07:07:00.823Z,31.50
2018-07-02T07:07:34.423Z,31.40
2018-07-02T07:08:08.012Z,31.40
2018-07-02T07:08:42.454Z,31.20
2018-07-02T07:09:15.977Z,31.50
2018-07-02T07:09:49.548Z,30.50
2018-07-02T07:10:23.099Z,30.20
2018-07-02T07:10:57.450Z,30.00
2018-07-02T07:11:31.685Z,29.90
2018-07-02T07:12:05.969Z,29.90
2018-07-02T07:12:40.517Z,30.10
2018-07-02T07:13:14.243Z,30.30
2018-07-02T07:13:47.890Z,30.20
2018-07-02T07:14:21.475Z,30.30
2018-07-02T07:14:55.057Z,31.00
2018-07-02T07:15:28.650Z,30.20
2018-07-02T07:16:02.836Z,30.40
2018-07-02T07:16:36.440Z,30.40
2018-07-02T07:17:10.583Z,30.80
2018-07-02T07:17:44.189Z,31.50
2018-07-02T07:18:17.787Z,30.20
2018-07-02T07:18:52.078Z,29.90
2018-07-02T07:19:25.695Z,30.00
2018-07-02T07:20:00.165Z,30.00
2018-07-02T07:20:33.767Z,30.10
2018-07-02T07:21:07.320Z,30.50
2018-07-02T07:21:40.900Z,30.50
2018-07-02T07:22:14.481Z,30.20
2018-07-02T07:22:48.724Z,29.90
2018-07-02T07:23:22.330Z,29.90
2018-07-02T07:23:55.940Z,29.90
2018-07-02T07:24:29.582Z,29.70
2018-07-02T07:25:03.258Z,29.60
2018-07-02T07:25:37.446Z,29.40
2018-07-02T07:26:11.784Z,29.50
2018-07-02T07:26:45.447Z,29.70
2018-07-02T07:27:19.035Z,29.60
2018-07-02T07:27:53.159Z,29.30
2018-07-02T07:28:26.727Z,29.20
2018-07-02T07:29:00.267Z,29.10
2018-07-02T07:29:34.502Z,29.20
2018-07-02T07:30:41.439Z,29.50
2018-07-02T07:31:15.702Z,28.90
2018-07-02T07:31:49.851Z,29.00
2018-07-02T07:32:23.439Z,29.10